createdAt,value
2022-08-12T00:00:50.153Z,68.91
2022-08-12T00:03:20.554Z,69.10
2022-08-12T00:06:04.200Z,69.38
2022-08-12T00:08:09.276Z,69.64
2022-08-12T00:10:35.754Z,69.72
2022-08-12T00:13:02.104Z,70.01
2022-08-12T00:15:28.515Z,70.26
2022-08-12T00:17:54.893Z,70.42
2022-08-12T00:20:21.273Z,70.55
2022-08-12T00:22:53.050Z,70.85
2022-08-12T00:25:14.040Z,70.75
2022-08-12T00:27:43.991Z,70.32
2022-08-12T00:30:06.816Z,70.80
2022-08-12T00:32:54.831Z,70.78
2022-08-12T00:34:59.666Z,71.11
2022-08-12T00:37:26.093Z,71.19
2022-08-12T00:39:52.509Z,71.39
2022-08-12T00:42:18.838Z,71.54
2022-08-12T00:44:45.297Z,71.58
2022-08-12T00:47:24.167Z,71.27
2022-08-12T00:49:38.061Z,71.45
2022-08-12T00:52:04.464Z,71.32
2022-08-12T00:54:30.834Z,71.62
2022-08-12T00:56:57.195Z,71.84
2022-08-12T00:59:23.581Z,71.64
2022-08-12T01:02:02.152Z,71.35
2022-08-12T01:04:16.324Z,71.25
2022-08-12T01:06:42.700Z,71.43
2022-08-12T01:09:09.065Z,71.66
2022-08-12T01:11:35.427Z,71.71
2022-08-12T01:14:01.793Z,71.83
2022-08-12T01:16:28.208Z,71.88
2022-08-12T01:18:54.593Z,71.97
2022-08-12T01:21:20.970Z,72.23
2022-08-12T01:23:47.405Z,72.52
2022-08-12T01:26:13.765Z,72.58
2022-08-12T01:28:40.139Z,72.60
2022-08-12T01:31:06.631Z,72.62
2022-08-12T01:33:32.962Z,72.56
2022-08-12T01:36:07.814Z,72.65
2022-08-12T01:38:29.930Z,72.85
2022-08-12T01:40:52.172Z,72.79
2022-08-12T01:43:18.508Z,72.23
2022-08-12T01:45:44.998Z,71.83
2022-08-12T01:48:11.360Z,71.68
2022-08-12T01:50:37.742Z,71.64
2022-08-12T01:53:04.105Z,71.88
2022-08-12T01:55:30.520Z,71.62
2022-08-12T01:57:58.638Z,71.10
2022-08-12T02:00:35.744Z,70.62
2022-08-12T02:02:49.631Z,69.82
2022-08-12T02:05:15.987Z,69.12
2022-08-12T02:07:42.354Z,68.99
2022-08-12T02:10:08.807Z,68.66
2022-08-12T02:12:35.232Z,68.54
2022-08-12T02:15:01.576Z,70.17
2022-08-12T02:17:55.637Z,68.48
2022-08-12T02:19:54.344Z,67.80
2022-08-12T02:22:20.710Z,67.36
2022-08-12T02:24:47.106Z,67.30
2022-08-12T02:27:13.540Z,66.74
2022-08-12T02:29:39.897Z,67.56
2022-08-12T02:32:06.301Z,67.39
2022-08-12T02:34:32.696Z,67.18
2022-08-12T02:37:02.512Z,67.15
2022-08-12T02:39:25.467Z,67.51
2022-08-12T02:41:51.832Z,67.17
2022-08-12T02:44:18.262Z,66.64
2022-08-12T02:46:44.700Z,66.73
2022-08-12T02:49:12.575Z,67.16
2022-08-12T02:51:37.428Z,66.99
2022-08-12T02:54:05.457Z,66.70
2022-08-12T02:56:30.182Z,66.48
2022-08-12T02:58:56.562Z,66.41
2022-08-12T03:01:22.983Z,66.41
2022-08-12T03:03:49.417Z,66.48
2022-08-12T03:06:15.805Z,67.24
2022-08-12T03:08:42.186Z,66.71
2022-08-12T03:11:12.163Z,66.27
2022-08-12T03:13:35.018Z,66.08
2022-08-12T03:16:01.382Z,65.95
2022-08-12T03:18:28.966Z,65.97
2022-08-12T03:20:54.245Z,65.81
2022-08-12T03:23:30.033Z,66.21
2022-08-12T03:25:47.044Z,67.53
2022-08-12T03:28:23.917Z,69.21
2022-08-12T03:30:39.875Z,70.90
2022-08-12T03:33:06.309Z,72.48
2022-08-12T03:35:40.657Z,74.02
2022-08-12T03:37:59.054Z,75.24
2022-08-12T03:40:25.497Z,77.12
2022-08-12T03:42:51.866Z,78.07
2022-08-12T03:45:18.260Z,78.94
2022-08-12T03:47:44.621Z,80.39
2022-08-12T03:50:10.989Z,81.37
2022-08-12T03:52:37.357Z,82.16
2022-08-12T03:55:03.715Z,82.70
2022-08-12T03:57:30.100Z,82.63
2022-08-12T03:59:56.558Z,83.45
2022-08-12T04:02:22.946Z,84.17
2022-08-12T04:04:49.634Z,84.78
2022-08-12T04:07:15.756Z,85.02
2022-08-12T04:09:42.188Z,86.28
2022-08-12T04:12:08.568Z,87.09
2022-08-12T04:14:35.047Z,87.24
2022-08-12T04:17:01.411Z,87.92
2022-08-12T04:19:27.770Z,89.25
2022-08-12T04:22:02.457Z,88.97
2022-08-12T04:24:20.551Z,89.42
2022-08-12T04:26:46.954Z,89.76
2022-08-12T04:29:13.332Z,90.25
2022-08-12T04:31:39.733Z,91.28
2022-08-12T04:34:06.213Z,91.18
2022-08-12T04:36:32.645Z,91.39
2022-08-12T04:38:59.793Z,91.82
2022-08-12T04:41:25.386Z,92.40
2022-08-12T04:44:00.813Z,93.03
2022-08-12T04:46:22.580Z,93.94
2022-08-12T04:48:44.510Z,95.57
2022-08-12T04:51:13.611Z,97.04
2022-08-12T04:53:37.377Z,97.23
2022-08-12T04:56:03.906Z,97.24
2022-08-12T04:58:30.283Z,96.57
2022-08-12T05:00:56.670Z,97.40
2022-08-12T05:03:23.067Z,97.65
2022-08-12T05:05:49.548Z,96.73
2022-08-12T05:08:15.925Z,95.72
2022-08-12T05:10:42.396Z,95.26
2022-08-12T05:13:08.775Z,95.38
2022-08-12T05:15:36.082Z,95.68
2022-08-12T05:18:02.210Z,95.17
2022-08-12T05:20:28.040Z,95.05
2022-08-12T05:22:57.393Z,95.40
2022-08-12T05:25:21.106Z,95.28
2022-08-12T05:27:58.455Z,94.94
2022-08-12T05:30:13.688Z,94.24
2022-08-12T05:32:40.159Z,94.45
2022-08-12T05:35:06.908Z,96.02
2022-08-12T05:37:32.820Z,94.60
2022-08-12T05:39:59.866Z,95.21
2022-08-12T05:42:33.740Z,96.46
2022-08-12T05:44:52.038Z,96.29
2022-08-12T05:47:18.439Z,96.06
2022-08-12T05:49:44.807Z,96.77
2022-08-12T05:52:11.170Z,96.42
2022-08-12T05:54:56.634Z,96.10
2022-08-12T05:57:04.018Z,95.64
2022-08-12T05:59:30.413Z,95.40
2022-08-12T06:02:08.880Z,94.20
2022-08-12T06:04:23.215Z,92.41
2022-08-12T06:06:49.640Z,90.12
2022-08-12T06:09:15.997Z,89.77
2022-08-12T06:11:54.038Z,90.86
2022-08-12T06:14:11.858Z,91.22
2022-08-12T06:16:35.379Z,89.80
2022-08-12T06:19:01.768Z,88.92
2022-08-12T06:21:28.146Z,88.74
2022-08-12T06:23:54.518Z,88.53
2022-08-12T06:26:20.870Z,87.96
2022-08-12T06:28:47.337Z,88.21
2022-08-12T06:31:28.988Z,87.39
2022-08-12T06:33:55.298Z,86.02
2022-08-12T06:36:06.537Z,84.90
2022-08-12T06:38:33.102Z,82.61
2022-08-12T06:40:59.479Z,81.95
2022-08-12T06:43:25.846Z,82.67
2022-08-12T06:45:52.267Z,80.51
2022-08-12T06:48:18.699Z,79.34
2022-08-12T06:50:45.175Z,79.33
2022-08-12T06:53:11.599Z,77.76
2022-08-12T06:55:37.904Z,77.68
2022-08-12T06:58:10.004Z,76.20
2022-08-12T07:00:32.480Z,74.38
2022-08-12T07:02:56.937Z,73.17
2022-08-12T07:05:23.320Z,74.32
2022-08-12T07:07:49.700Z,75.18
2022-08-12T07:10:16.086Z,73.71
2022-08-12T07:12:42.710Z,74.69
2022-08-12T07:15:08.870Z,72.88
2022-08-12T07:17:35.247Z,71.99
2022-08-12T07:20:04.497Z,71.75
2022-08-12T07:22:27.994Z,71.71
2022-08-12T07:24:54.354Z,71.16
2022-08-12T07:27:20.724Z,70.59
2022-08-12T07:29:58.160Z,71.21
2022-08-12T07:32:13.714Z,70.81
2022-08-12T07:34:40.228Z,69.91
2022-08-12T07:37:06.574Z,68.71
2022-08-12T07:39:32.988Z,63.12
2022-08-12T07:41:59.361Z,57.63
2022-08-12T07:44:26.062Z,58.23
2022-08-12T07:46:52.479Z,56.28
2022-08-12T07:49:18.881Z,52.89
2022-08-12T07:51:45.244Z,53.98
2022-08-12T07:54:11.680Z,52.26
2022-08-12T07:56:38.053Z,52.75
2022-08-12T07:59:04.437Z,54.58
2022-08-12T08:01:30.828Z,54.87
2022-08-12T08:03:57.227Z,54.89
2022-08-12T08:06:23.616Z,55.15
2022-08-12T08:08:50.015Z,54.19
2022-08-12T08:11:16.379Z,54.03
2022-08-12T08:13:42.771Z,51.76
2022-08-12T08:16:09.134Z,49.38
2022-08-12T08:18:35.594Z,47.51
2022-08-12T08:21:02.002Z,48.05
2022-08-12T08:23:34.972Z,49.43
2022-08-12T08:25:54.793Z,50.59
2022-08-12T08:28:21.153Z,49.27
2022-08-12T08:30:47.558Z,47.60
2022-08-12T08:33:20.113Z,47.99
2022-08-12T08:35:47.117Z,47.71
2022-08-12T08:38:06.751Z,49.36
2022-08-12T08:40:33.147Z,49.49
2022-08-12T08:42:59.523Z,48.25
2022-08-12T08:45:25.911Z,49.59
2022-08-12T08:47:52.273Z,50.20
2022-08-12T08:50:18.756Z,49.55
2022-08-12T08:52:45.042Z,50.68
2022-08-12T08:55:11.486Z,48.56
2022-08-12T08:57:43.440Z,43.34
2022-08-12T09:00:04.352Z,38.94
2022-08-12T09:02:30.722Z,41.65
2022-08-12T09:05:11.866Z,42.57
2022-08-12T09:07:51.786Z,43.74
2022-08-12T09:10:02.546Z,45.50
2022-08-12T09:12:16.385Z,43.39
2022-08-12T09:14:42.885Z,41.35
2022-08-12T09:17:09.280Z,40.04
2022-08-12T09:19:35.705Z,38.61
2022-08-12T09:22:02.092Z,39.56
2022-08-12T09:24:28.514Z,41.14
2022-08-12T09:26:54.905Z,41.29
2022-08-12T09:30:11.012Z,40.46
2022-08-12T09:32:03.373Z,37.82
2022-08-12T09:34:28.681Z,35.56
2022-08-12T09:36:58.041Z,36.78
2022-08-12T09:40:02.543Z,36.38
2022-08-12T09:42:32.892Z,38.21
2022-08-12T09:44:01.007Z,39.11
2022-08-12T09:46:26.211Z,40.11
2022-08-12T09:48:56.424Z,41.23
2022-08-12T09:51:22.353Z,41.97
2022-08-12T09:53:45.800Z,42.58
2022-08-12T09:56:57.945Z,42.75
2022-08-12T09:58:57.694Z,42.95
2022-08-12T10:01:06.578Z,42.78
2022-08-12T10:03:31.856Z,42.01
2022-08-12T10:06:26.983Z,40.64
2022-08-12T10:08:23.642Z,42.35
2022-08-12T10:10:50.006Z,41.29
2022-08-12T10:13:33.840Z,41.32
2022-08-12T10:16:00.723Z,40.86
2022-08-12T10:18:09.173Z,40.48
2022-08-12T10:20:35.508Z,36.76
2022-08-12T10:23:02.000Z,35.45
2022-08-12T10:26:18.587Z,38.55
2022-08-12T10:28:03.988Z,39.39
2022-08-12T10:30:40.629Z,39.89
2022-08-12T10:32:56.629Z,40.35
2022-08-12T10:35:13.841Z,40.03
2022-08-12T10:38:39.284Z,40.03
2022-08-12T10:40:11.528Z,40.82
2022-08-12T10:42:32.990Z,41.14
2022-08-12T10:44:59.445Z,41.00
2022-08-12T10:48:07.359Z,40.62
2022-08-12T10:50:03.009Z,40.75
2022-08-12T10:52:34.223Z,39.88
2022-08-12T10:54:45.068Z,40.03
2022-08-12T10:57:17.950Z,40.07
2022-08-12T11:00:29.457Z,40.66
2022-08-12T11:04:22.495Z,41.88
2022-08-12T11:04:41.475Z,42.11
2022-08-12T11:07:10.114Z,41.35
2022-08-12T11:09:55.688Z,41.10
2022-08-12T11:12:35.472Z,41.19
2022-08-12T11:14:49.336Z,40.96
2022-08-12T11:16:42.502Z,42.05
2022-08-12T11:19:08.897Z,41.68
2022-08-12T11:21:57.596Z,41.55
2022-08-12T11:24:01.932Z,41.61
2022-08-12T11:26:28.015Z,42.17
2022-08-12T11:29:05.400Z,41.87
2022-08-12T11:31:20.762Z,41.06
2022-08-12T11:34:04.503Z,42.00
2022-08-12T11:36:16.571Z,42.22
2022-08-12T11:38:43.078Z,41.44
2022-08-12T11:41:09.469Z,41.44
2022-08-12T11:43:50.588Z,41.54
2022-08-12T11:46:02.376Z,42.12
2022-08-12T11:48:28.811Z,42.82
2022-08-12T11:50:55.180Z,42.90
2022-08-12T11:53:57.522Z,42.68
2022-08-12T11:55:47.939Z,42.49
2022-08-12T11:59:31.368Z,42.81
2022-08-12T12:03:07.144Z,42.51
2022-08-12T12:05:41.738Z,44.03
2022-08-12T12:08:38.016Z,43.97
2022-08-12T12:10:26.304Z,44.66
2022-08-12T12:12:52.664Z,45.14
2022-08-12T12:15:25.350Z,46.16
2022-08-12T12:17:45.418Z,47.54
2022-08-12T12:20:12.396Z,46.53
2022-08-12T12:22:38.276Z,45.59
2022-08-12T12:25:13.193Z,47.07
2022-08-12T12:28:03.750Z,46.98
2022-08-12T12:30:19.552Z,45.29
2022-08-12T12:32:29.387Z,44.84
2022-08-12T12:35:14.893Z,45.28
2022-08-12T12:37:17.475Z,44.67
2022-08-12T12:39:55.633Z,42.38
2022-08-12T12:42:44.035Z,41.68
2022-08-12T12:44:41.875Z,41.28
2022-08-12T12:47:02.157Z,43.59
2022-08-12T12:49:28.521Z,44.39
2022-08-12T12:52:18.383Z,45.00
2022-08-12T12:54:24.478Z,44.25
2022-08-12T12:56:47.732Z,41.70
2022-08-12T12:59:54.839Z,41.63
2022-08-12T13:01:42.081Z,41.45
2022-08-12T13:04:06.962Z,41.72
2022-08-12T13:06:34.317Z,40.84
2022-08-12T13:09:02.439Z,39.42
2022-08-12T13:11:26.092Z,39.90
2022-08-12T13:14:08.760Z,41.45
2022-08-12T13:16:20.692Z,43.88
2022-08-12T13:18:45.326Z,45.76
2022-08-12T13:21:15.643Z,46.21
2022-08-12T13:23:38.073Z,46.06
2022-08-12T13:26:04.527Z,45.70
2022-08-12T13:28:30.961Z,45.80
2022-08-12T13:30:57.337Z,45.77
2022-08-12T13:33:23.791Z,45.84
2022-08-12T13:36:05.021Z,45.69
2022-08-12T13:38:26.650Z,45.38
2022-08-12T13:40:42.960Z,44.78
2022-08-12T13:43:09.324Z,44.93
2022-08-12T13:45:36.705Z,47.97
2022-08-12T13:48:02.211Z,46.83
2022-08-12T13:50:28.441Z,47.55
2022-08-12T13:52:54.802Z,46.88
2022-08-12T13:55:21.188Z,47.13
2022-08-12T13:57:47.652Z,46.92
2022-08-12T14:00:14.022Z,48.26
2022-08-12T14:02:40.654Z,47.69
2022-08-12T14:05:37.470Z,44.76
2022-08-12T14:07:48.845Z,45.28
2022-08-12T14:09:59.878Z,45.57
2022-08-12T14:12:26.246Z,46.77
2022-08-12T14:14:52.615Z,50.19
2022-08-12T14:17:19.857Z,53.16
2022-08-12T14:19:52.962Z,54.22
2022-08-12T14:22:11.798Z,53.18
2022-08-12T14:24:40.913Z,53.20
2022-08-12T14:27:09.047Z,54.23
2022-08-12T14:29:38.136Z,53.10
2022-08-12T14:31:57.399Z,52.71
2022-08-12T14:34:28.231Z,52.86
2022-08-12T14:36:50.272Z,51.93
2022-08-12T14:39:16.743Z,53.18
2022-08-12T14:41:48.405Z,51.82
2022-08-12T14:44:57.540Z,51.81
2022-08-12T14:46:35.830Z,52.29
2022-08-12T14:50:01.341Z,52.17
2022-08-12T14:52:54.092Z,51.20
2022-08-12T14:54:49.923Z,50.33
2022-08-12T14:58:51.843Z,50.06
2022-08-12T15:01:14.188Z,48.80
2022-08-12T15:03:52.790Z,49.72
2022-08-12T15:06:39.094Z,49.45
2022-08-12T15:08:33.491Z,48.79
2022-08-12T15:10:59.851Z,48.20
2022-08-12T15:13:26.254Z,47.90
2022-08-12T15:15:52.615Z,47.83
2022-08-12T15:18:21.645Z,48.28
2022-08-12T15:20:45.446Z,48.41
2022-08-12T15:23:17.705Z,47.88
2022-08-12T15:25:39.945Z,47.77
2022-08-12T15:28:06.022Z,46.88
2022-08-12T15:30:30.974Z,46.65
2022-08-12T15:32:57.424Z,46.02
2022-08-12T15:35:23.839Z,45.71
2022-08-12T15:38:09.387Z,45.73
2022-08-12T15:40:16.674Z,46.07
2022-08-12T15:42:46.771Z,45.78
2022-08-12T15:45:09.469Z,46.25
2022-08-12T15:47:49.626Z,45.85
2022-08-12T15:50:02.256Z,45.80
2022-08-12T15:52:28.670Z,46.10
2022-08-12T15:54:54.980Z,45.70
2022-08-12T15:57:21.429Z,45.91
2022-08-12T16:00:00.541Z,46.05
2022-08-12T16:02:14.296Z,45.40
2022-08-12T16:04:40.678Z,45.65
2022-08-12T16:07:10.001Z,45.70
2022-08-12T16:09:56.331Z,45.97
2022-08-12T16:11:59.815Z,46.06
2022-08-12T16:14:26.188Z,46.27
2022-08-12T16:16:52.550Z,46.38
2022-08-12T16:20:03.198Z,46.81
2022-08-12T16:21:52.164Z,46.99
2022-08-12T16:24:11.730Z,47.22
2022-08-12T16:26:38.117Z,47.55
2022-08-12T16:29:15.124Z,48.07
2022-08-12T16:31:30.979Z,48.58
2022-08-12T16:34:00.484Z,49.13
2022-08-12T16:36:23.709Z,49.65
2022-08-12T16:38:50.072Z,50.05
2022-08-12T16:41:16.437Z,50.46
2022-08-12T16:43:42.859Z,50.12
2022-08-12T16:46:31.492Z,50.18
2022-08-12T16:48:36.228Z,50.00
2022-08-12T16:51:02.035Z,50.49
2022-08-12T16:53:30.663Z,50.37
2022-08-12T16:55:54.777Z,49.28
2022-08-12T16:58:28.224Z,49.41
2022-08-12T17:00:48.167Z,49.43
2022-08-12T17:03:14.027Z,49.46
2022-08-12T17:05:40.586Z,49.57
2022-08-12T17:08:06.906Z,49.84
2022-08-12T17:10:35.497Z,50.59
2022-08-12T17:12:59.725Z,50.38
2022-08-12T17:15:57.838Z,50.24
2022-08-12T17:18:39.197Z,50.69
2022-08-12T17:20:35.216Z,51.04
2022-08-12T17:22:45.231Z,51.13
2022-08-12T17:25:14.729Z,51.46
2022-08-12T17:27:37.974Z,51.90
2022-08-12T17:30:05.619Z,51.74
2022-08-12T17:32:30.727Z,51.94
2022-08-12T17:34:57.212Z,52.32
2022-08-12T17:37:23.645Z,52.34
2022-08-12T17:40:10.088Z,52.52
2022-08-12T17:42:32.865Z,52.67
2022-08-12T17:44:42.877Z,52.92
2022-08-12T17:47:09.226Z,53.37
2022-08-12T17:50:02.076Z,53.77
2022-08-12T17:52:03.146Z,53.74
2022-08-12T17:54:28.362Z,53.91
2022-08-12T17:56:54.797Z,54.35
2022-08-12T17:59:48.249Z,54.64
2022-08-12T18:01:47.653Z,54.42
2022-08-12T18:04:21.979Z,55.18
2022-08-12T18:06:40.378Z,55.66
2022-08-12T18:09:08.921Z,55.69
2022-08-12T18:12:03.278Z,56.30
2022-08-12T18:13:59.615Z,56.54
2022-08-12T18:16:26.033Z,56.77
2022-08-12T18:18:59.653Z,56.78
2022-08-12T18:21:18.824Z,56.78
2022-08-12T18:23:50.900Z,56.93
2022-08-12T18:26:15.970Z,56.64
2022-08-12T18:28:38.054Z,56.72
2022-08-12T18:31:04.517Z,56.67
2022-08-12T18:33:30.889Z,56.19
2022-08-12T18:35:58.413Z,56.48
2022-08-12T18:38:24.541Z,57.23
2022-08-12T18:40:50.035Z,57.54
2022-08-12T18:43:16.420Z,57.40
2022-08-12T18:45:47.331Z,57.51
2022-08-12T18:48:09.164Z,57.45
2022-08-12T18:50:49.185Z,57.46
2022-08-12T18:53:01.885Z,59.07
2022-08-12T18:55:37.404Z,59.06
2022-08-12T18:58:08.321Z,59.26
2022-08-12T19:00:22.056Z,60.08
2022-08-12T19:02:47.856Z,61.78
2022-08-12T19:05:13.829Z,63.37
2022-08-12T19:07:49.785Z,64.37
2022-08-12T19:10:06.664Z,64.56
2022-08-12T19:12:33.048Z,64.03
2022-08-12T19:15:04.180Z,63.91
2022-08-12T19:17:25.916Z,64.53
2022-08-12T19:19:52.295Z,65.43
2022-08-12T19:22:29.038Z,66.58
2022-08-12T19:24:45.162Z,67.23
2022-08-12T19:27:11.587Z,67.48
2022-08-12T19:29:43.906Z,67.79
2022-08-12T19:32:04.363Z,67.03
2022-08-12T19:35:32.957Z,66.23
2022-08-12T19:36:57.223Z,65.85
2022-08-12T19:39:25.303Z,66.33
2022-08-12T19:42:00.687Z,65.53
2022-08-12T19:44:18.621Z,64.51
2022-08-12T19:46:42.817Z,64.73
2022-08-12T19:49:09.197Z,64.23
2022-08-12T19:51:35.731Z,64.33
2022-08-12T19:54:01.965Z,64.46
2022-08-12T19:56:28.356Z,64.79
2022-08-12T19:58:54.808Z,65.04
2022-08-12T20:01:21.248Z,65.03
2022-08-12T20:03:47.743Z,65.40
2022-08-12T20:06:21.908Z,65.26
2022-08-12T20:08:40.422Z,65.48
2022-08-12T20:12:08.789Z,65.45
2022-08-12T20:13:37.623Z,65.58
2022-08-12T20:15:59.996Z,65.13
2022-08-12T20:18:53.307Z,65.54
2022-08-12T20:20:52.303Z,65.00
2022-08-12T20:23:18.736Z,64.92
2022-08-12T20:25:53.495Z,65.21
2022-08-12T20:28:11.497Z,65.28
2022-08-12T20:30:53.415Z,65.54
2022-08-12T20:33:04.252Z,65.54
2022-08-12T20:36:06.002Z,65.79
2022-08-12T20:38:07.325Z,65.80
2022-08-12T20:40:23.406Z,65.65
2022-08-12T20:42:50.521Z,65.87
2022-08-12T20:45:16.124Z,65.71
2022-08-12T20:47:46.885Z,66.06
2022-08-12T20:50:08.932Z,66.48
2022-08-12T20:52:35.420Z,66.62
2022-08-12T20:55:01.852Z,67.02
2022-08-12T20:57:37.494Z,67.42
2022-08-12T20:59:54.615Z,67.91
2022-08-12T21:02:24.392Z,68.12
2022-08-12T21:04:47.381Z,68.16
2022-08-12T21:07:14.432Z,68.21
2022-08-12T21:09:40.634Z,68.66
2022-08-12T21:12:06.711Z,68.28
2022-08-12T21:14:39.840Z,67.96
2022-08-12T21:16:59.463Z,68.08
2022-08-12T21:19:25.837Z,68.48
2022-08-12T21:21:52.199Z,68.83
2022-08-12T21:24:18.639Z,69.20
2022-08-12T21:26:53.233Z,69.29
2022-08-12T21:29:11.402Z,69.53
2022-08-12T21:32:36.668Z,69.74
2022-08-12T21:34:07.280Z,69.87
2022-08-12T21:36:32.241Z,69.90
2022-08-12T21:38:57.136Z,70.02
2022-08-12T21:41:23.519Z,70.36
2022-08-12T21:43:50.000Z,70.60
2022-08-12T21:46:34.751Z,70.25
2022-08-12T21:48:42.764Z,70.51
2022-08-12T21:51:23.200Z,70.79
2022-08-12T21:54:07.583Z,70.52
2022-08-12T21:56:01.909Z,70.40
2022-08-12T21:58:28.274Z,70.66
2022-08-12T22:00:54.749Z,70.51
2022-08-12T22:04:02.781Z,70.10
2022-08-12T22:05:47.518Z,69.57
2022-08-12T22:08:13.907Z,69.12
2022-08-12T22:10:40.273Z,68.31
2022-08-12T22:13:06.642Z,67.73
2022-08-12T22:15:33.116Z,67.35
2022-08-12T22:17:59.499Z,67.25
2022-08-12T22:20:29.303Z,67.00
2022-08-12T22:22:56.873Z,66.27
2022-08-12T22:25:20.283Z,65.96
2022-08-12T22:27:45.056Z,65.50
2022-08-12T22:30:16.719Z,64.84
2022-08-12T22:32:37.778Z,64.67
2022-08-12T22:35:04.174Z,64.63
2022-08-12T22:37:30.606Z,64.55
2022-08-12T22:39:57.087Z,64.55
2022-08-12T22:42:23.427Z,64.81
2022-08-12T22:44:52.725Z,65.19
2022-08-12T22:47:16.238Z,65.33
2022-08-12T22:49:53.072Z,65.72
2022-08-12T22:52:09.029Z,65.73
2022-08-12T22:54:37.565Z,65.87
2022-08-12T22:57:01.865Z,66.52
2022-08-12T22:59:28.291Z,67.37
2022-08-12T23:02:01.988Z,68.10
2022-08-12T23:04:27.652Z,68.37
2022-08-12T23:06:47.435Z,68.86
2022-08-12T23:09:13.824Z,70.28
2022-08-12T23:11:40.999Z,70.41
2022-08-12T23:14:06.658Z,71.34
2022-08-12T23:16:33.519Z,71.37
2022-08-12T23:18:59.678Z,72.02
2022-08-12T23:21:25.817Z,72.22
2022-08-12T23:24:09.450Z,72.09
2022-08-12T23:26:18.654Z,72.00
2022-08-12T23:28:45.010Z,71.87
2022-08-12T23:31:11.393Z,71.51
2022-08-12T23:34:00.051Z,71.52
2022-08-12T23:36:04.282Z,71.64
2022-08-12T23:38:32.249Z,71.43
2022-08-12T23:40:57.076Z,71.38
2022-08-12T23:43:23.393Z,71.44
2022-08-12T23:46:01.110Z,71.15
2022-08-12T23:48:22.950Z,70.80
2022-08-12T23:50:42.539Z,70.80
2022-08-12T23:53:22.700Z,71.01
2022-08-12T23:55:35.433Z,70.85
2022-08-12T23:58:22.581Z,70.72
